createdAt,value
2023-01-29T00:01:22.448Z,-3.60
2023-01-29T00:03:48.967Z,-3.80
2023-01-29T00:06:17.690Z,-4.21
2023-01-29T00:08:44.394Z,-4.25
2023-01-29T00:11:10.835Z,-3.61
2023-01-29T00:13:37.230Z,-3.63
2023-01-29T00:16:03.843Z,-3.36
2023-01-29T00:18:30.537Z,-3.37
2023-01-29T00:20:56.977Z,-2.61
2023-01-29T00:23:23.544Z,-3.21
2023-01-29T00:25:50.913Z,-3.76
2023-01-29T00:28:17.329Z,-3.68
2023-01-29T00:30:43.789Z,-3.63
2023-01-29T00:33:10.282Z,-3.59
2023-01-29T00:35:37.101Z,-3.42
2023-01-29T00:38:04.226Z,-3.46
2023-01-29T00:40:32.767Z,-3.49
2023-01-29T00:42:59.659Z,-3.73
2023-01-29T00:45:26.159Z,-3.93
2023-01-29T00:47:52.589Z,-3.75
2023-01-29T00:50:19.358Z,-4.55
2023-01-29T00:52:46.409Z,-4.32
2023-01-29T00:55:13.176Z,-3.75
2023-01-29T00:57:40.119Z,-3.66
2023-01-29T01:00:06.767Z,-3.59
2023-01-29T01:02:33.666Z,-3.64
2023-01-29T01:05:00.135Z,-3.51
2023-01-29T01:07:26.551Z,-3.30
2023-01-29T01:09:53.240Z,-3.39
2023-01-29T01:12:19.672Z,-3.57
2023-01-29T01:14:46.087Z,-3.63
2023-01-29T01:17:12.541Z,-3.58
2023-01-29T01:19:38.995Z,-3.29
2023-01-29T01:22:05.665Z,-3.29
2023-01-29T01:24:32.301Z,-3.46
2023-01-29T01:26:58.964Z,-3.88
2023-01-29T01:29:25.461Z,-4.09
2023-01-29T01:31:51.939Z,-3.73
2023-01-29T01:34:18.631Z,-3.73
2023-01-29T01:36:45.337Z,-3.49
2023-01-29T01:39:11.883Z,-4.15
2023-01-29T01:41:38.531Z,-4.22
2023-01-29T01:44:05.139Z,-3.93
2023-01-29T01:46:32.077Z,-3.83
2023-01-29T01:48:58.547Z,-4.10
2023-01-29T01:51:25.248Z,-3.98
2023-01-29T01:53:51.912Z,-3.84
2023-01-29T01:56:18.317Z,-3.49
2023-01-29T01:58:44.741Z,-3.43
2023-01-29T02:01:11.372Z,-3.25
2023-01-29T02:03:37.784Z,-4.03
2023-01-29T02:06:06.323Z,-4.76
2023-01-29T02:08:32.962Z,-3.90
2023-01-29T02:10:59.486Z,-3.74
2023-01-29T02:13:25.923Z,-4.37
2023-01-29T02:15:52.340Z,-4.10
2023-01-29T02:18:18.956Z,-4.74
2023-01-29T02:20:47.601Z,-4.82
2023-01-29T02:23:14.089Z,-5.02
2023-01-29T02:25:40.530Z,-5.37
2023-01-29T02:28:07.467Z,-4.79
2023-01-29T02:30:34.050Z,-4.77
2023-01-29T02:33:00.478Z,-5.04
2023-01-29T02:35:26.889Z,-4.60
2023-01-29T02:37:53.440Z,-5.28
2023-01-29T02:40:19.920Z,-4.92
2023-01-29T02:42:46.377Z,-4.50
2023-01-29T02:45:13.003Z,-4.65
2023-01-29T02:47:39.655Z,-4.94
2023-01-29T02:50:06.312Z,-4.14
2023-01-29T02:52:33.130Z,-5.07
2023-01-29T02:54:59.576Z,-4.64
2023-01-29T02:57:26.274Z,-4.46
2023-01-29T02:59:52.776Z,-4.11
2023-01-29T03:02:19.677Z,-4.24
2023-01-29T03:04:46.214Z,-4.18
2023-01-29T03:07:12.684Z,-4.27
2023-01-29T03:09:39.090Z,-4.06
2023-01-29T03:12:05.528Z,-5.06
2023-01-29T03:14:32.043Z,-4.82
2023-01-29T03:16:58.659Z,-4.69
2023-01-29T03:19:25.323Z,-4.43
2023-01-29T03:21:51.781Z,-4.22
2023-01-29T03:24:18.268Z,-4.78
2023-01-29T03:26:44.757Z,-4.12
2023-01-29T03:29:12.175Z,-3.85
2023-01-29T03:31:38.730Z,-3.87
2023-01-29T03:34:05.472Z,-3.32
2023-01-29T03:36:32.024Z,-3.28
2023-01-29T03:38:59.221Z,-3.48
2023-01-29T03:41:25.595Z,-3.50
2023-01-29T03:43:52.064Z,-3.63
2023-01-29T03:46:18.577Z,-3.46
2023-01-29T03:48:45.054Z,-3.71
2023-01-29T03:51:12.502Z,-3.44
2023-01-29T03:53:41.258Z,-3.49
2023-01-29T03:56:07.652Z,-3.55
2023-01-29T03:58:34.733Z,-4.43
2023-01-29T04:01:01.350Z,-4.32
2023-01-29T04:03:27.866Z,-4.36
2023-01-29T04:05:54.554Z,-4.92
2023-01-29T04:08:21.074Z,-4.66
2023-01-29T04:10:47.882Z,-4.97
2023-01-29T04:13:14.278Z,-5.06
2023-01-29T04:15:40.640Z,-5.12
2023-01-29T04:18:07.080Z,-4.24
2023-01-29T04:20:33.540Z,-4.58
2023-01-29T04:22:59.972Z,-4.24
2023-01-29T04:25:26.737Z,-4.09
2023-01-29T04:27:53.357Z,-4.53
2023-01-29T04:30:19.789Z,-5.44
2023-01-29T04:32:46.184Z,-5.41
2023-01-29T04:35:13.533Z,-4.92
2023-01-29T04:37:40.696Z,-5.09
2023-01-29T04:40:07.244Z,-4.34
2023-01-29T04:42:33.689Z,-5.50
2023-01-29T04:45:00.155Z,-4.57
2023-01-29T04:47:26.728Z,-4.73
2023-01-29T04:49:53.616Z,-4.73
2023-01-29T04:52:20.137Z,-5.02
2023-01-29T04:54:46.626Z,-5.34
2023-01-29T04:57:13.261Z,-4.71
2023-01-29T04:59:39.795Z,-4.67
2023-01-29T05:02:06.551Z,-4.83
2023-01-29T05:04:33.022Z,-4.69
2023-01-29T05:06:59.457Z,-5.15
2023-01-29T05:09:25.940Z,-5.03
2023-01-29T05:11:52.441Z,-5.03
2023-01-29T05:14:19.188Z,-5.82
2023-01-29T05:16:45.586Z,-5.68
2023-01-29T05:19:12.303Z,-5.03
2023-01-29T05:21:41.099Z,-4.48
2023-01-29T05:24:07.674Z,-4.35
2023-01-29T05:26:34.305Z,-4.69
2023-01-29T05:29:00.825Z,-4.68
2023-01-29T05:31:27.423Z,-4.28
2023-01-29T05:33:53.954Z,-4.82
2023-01-29T05:36:20.604Z,-5.09
2023-01-29T05:38:47.045Z,-5.23
2023-01-29T05:41:13.392Z,-5.31
2023-01-29T05:43:39.932Z,-4.70
2023-01-29T05:46:06.315Z,-4.57
2023-01-29T05:48:32.871Z,-4.77
2023-01-29T05:50:59.348Z,-6.17
2023-01-29T05:53:25.909Z,-5.70
2023-01-29T05:55:52.421Z,-6.08
2023-01-29T05:58:18.952Z,-5.49
2023-01-29T06:00:45.427Z,-5.95
2023-01-29T06:03:11.820Z,-6.37
2023-01-29T06:05:38.597Z,-5.91
2023-01-29T06:08:05.045Z,-5.17
2023-01-29T06:10:31.646Z,-4.86
2023-01-29T06:12:58.105Z,-4.92
2023-01-29T06:15:24.538Z,-4.81
2023-01-29T06:17:51.009Z,-5.00
2023-01-29T06:20:18.100Z,-5.39
2023-01-29T06:22:45.805Z,-5.93
2023-01-29T06:25:12.612Z,-4.90
2023-01-29T06:27:39.039Z,-5.84
2023-01-29T06:30:05.574Z,-5.94
2023-01-29T06:32:32.192Z,-5.11
2023-01-29T06:34:58.629Z,-5.47
2023-01-29T06:37:25.853Z,-5.47
2023-01-29T06:39:52.233Z,-5.93
2023-01-29T06:42:18.757Z,-5.78
2023-01-29T06:44:45.202Z,-5.98
2023-01-29T06:47:11.627Z,-5.62
2023-01-29T06:49:38.073Z,-5.56
2023-01-29T06:52:05.425Z,-6.15
2023-01-29T06:54:31.909Z,-6.38
2023-01-29T06:56:58.437Z,-5.91
2023-01-29T06:59:24.916Z,-5.37
2023-01-29T07:01:51.408Z,-5.89
2023-01-29T07:04:18.642Z,-5.73
2023-01-29T07:06:45.171Z,-5.76
2023-01-29T07:09:12.096Z,-5.43
2023-01-29T07:11:38.534Z,-5.54
2023-01-29T07:14:04.959Z,-5.18
2023-01-29T07:16:31.801Z,-5.15
2023-01-29T07:18:58.238Z,-5.91
2023-01-29T07:21:24.688Z,-5.96
2023-01-29T07:23:51.108Z,-5.61
2023-01-29T07:26:17.556Z,-5.58
2023-01-29T07:28:43.976Z,-5.80
2023-01-29T07:31:10.512Z,-5.58
2023-01-29T07:33:36.950Z,-4.94
2023-01-29T07:36:03.574Z,-4.94
2023-01-29T07:38:30.065Z,-5.57
2023-01-29T07:40:56.719Z,-5.00
2023-01-29T07:43:23.235Z,-4.98
2023-01-29T07:45:49.727Z,-4.54
2023-01-29T07:48:16.136Z,-4.75
2023-01-29T07:50:42.567Z,-4.76
2023-01-29T07:53:09.054Z,-4.16
2023-01-29T07:55:35.756Z,-4.31
2023-01-29T07:58:02.147Z,-4.60
2023-01-29T08:00:29.533Z,-5.05
2023-01-29T08:02:56.100Z,-4.48
2023-01-29T08:05:23.114Z,-4.79
2023-01-29T08:08:04.468Z,-3.75
2023-01-29T08:10:32.979Z,-4.42
2023-01-29T08:12:59.508Z,-4.66
2023-01-29T08:15:26.395Z,-5.10
2023-01-29T08:17:58.066Z,-4.85
2023-01-29T08:20:25.278Z,-5.04
2023-01-29T08:22:51.675Z,-4.80
2023-01-29T08:25:18.321Z,-4.82
2023-01-29T08:27:44.738Z,-4.87
2023-01-29T08:30:11.199Z,-4.66
2023-01-29T08:32:37.618Z,-4.99
2023-01-29T08:35:04.278Z,-5.67
2023-01-29T08:37:30.860Z,-5.96
2023-01-29T08:39:58.025Z,-5.70
2023-01-29T08:42:24.448Z,-5.56
2023-01-29T08:44:50.861Z,-5.66
2023-01-29T08:47:17.324Z,-5.35
2023-01-29T08:49:43.744Z,-5.13
2023-01-29T08:52:10.168Z,-5.86
2023-01-29T08:54:36.586Z,-5.68
2023-01-29T08:57:03.722Z,-5.66
2023-01-29T08:59:30.377Z,-5.35
2023-01-29T09:01:57.067Z,-5.32
2023-01-29T09:04:23.600Z,-4.32
2023-01-29T09:06:50.275Z,-4.52
2023-01-29T09:09:16.708Z,-5.10
2023-01-29T09:11:43.102Z,-5.01
2023-01-29T09:14:09.604Z,-5.41
2023-01-29T09:16:37.720Z,-5.15
2023-01-29T09:19:04.326Z,-4.86
2023-01-29T09:21:31.007Z,-4.83
2023-01-29T09:23:57.650Z,-4.85
2023-01-29T09:26:25.372Z,-4.58
2023-01-29T09:28:52.008Z,-4.22
2023-01-29T09:31:18.511Z,-3.74
2023-01-29T09:33:45.470Z,-3.57
2023-01-29T09:36:12.192Z,-4.92
2023-01-29T09:38:38.637Z,-5.74
2023-01-29T09:41:05.000Z,-6.21
2023-01-29T09:43:31.538Z,-5.70
2023-01-29T09:45:58.000Z,-5.26
2023-01-29T09:48:24.638Z,-4.41
2023-01-29T09:50:51.226Z,-5.10
2023-01-29T09:53:17.747Z,-4.05
2023-01-29T09:55:44.433Z,-4.36
2023-01-29T09:58:10.853Z,-4.48
2023-01-29T10:00:37.267Z,-4.04
2023-01-29T10:03:03.729Z,-4.67
2023-01-29T10:05:30.278Z,-5.10
2023-01-29T10:07:56.634Z,-4.43
2023-01-29T10:10:24.504Z,-3.90
2023-01-29T10:12:51.202Z,-4.76
2023-01-29T10:15:17.907Z,-4.17
2023-01-29T10:17:44.574Z,-4.17
2023-01-29T10:20:11.275Z,-4.89
2023-01-29T10:22:37.656Z,-4.82
2023-01-29T10:25:04.233Z,-5.11
2023-01-29T10:27:30.609Z,-4.24
2023-01-29T10:29:57.178Z,-4.59
2023-01-29T10:32:23.775Z,-5.61
2023-01-29T10:34:50.234Z,-5.26
2023-01-29T10:37:16.665Z,-4.73
2023-01-29T10:39:43.109Z,-4.60
2023-01-29T10:42:09.502Z,-4.02
2023-01-29T10:44:38.365Z,-4.57
2023-01-29T10:47:04.883Z,-3.71
2023-01-29T10:49:31.321Z,-4.27
2023-01-29T10:51:58.733Z,-3.71
2023-01-29T10:54:25.150Z,-3.01
2023-01-29T10:56:52.021Z,-4.03
2023-01-29T10:59:19.714Z,-4.09
2023-01-29T11:01:46.305Z,-3.73
2023-01-29T11:04:12.951Z,-4.52
2023-01-29T11:06:39.317Z,-4.21
2023-01-29T11:09:05.856Z,-3.54
2023-01-29T11:11:32.366Z,-3.53
2023-01-29T11:14:01.055Z,-3.34
2023-01-29T11:16:27.830Z,-3.37
2023-01-29T11:18:54.788Z,-4.02
2023-01-29T11:21:21.314Z,-3.76
2023-01-29T11:23:47.725Z,-3.97
2023-01-29T11:26:14.262Z,-4.42
2023-01-29T11:28:40.984Z,-5.62
2023-01-29T11:31:07.657Z,-4.68
2023-01-29T11:33:34.235Z,-3.97
2023-01-29T11:36:00.866Z,-3.60
2023-01-29T11:38:27.569Z,-3.56
2023-01-29T11:40:56.466Z,-4.71
2023-01-29T11:43:22.934Z,-3.75
2023-01-29T11:45:49.603Z,-4.10
2023-01-29T11:48:16.763Z,-4.32
2023-01-29T11:50:43.172Z,-3.70
2023-01-29T11:53:09.745Z,-3.06
2023-01-29T11:55:49.783Z,-3.79
2023-01-29T11:58:17.232Z,-2.97
2023-01-29T12:00:43.868Z,-3.73
2023-01-29T12:03:10.358Z,-4.00
2023-01-29T12:05:36.723Z,-3.97
2023-01-29T12:08:03.983Z,-3.38
2023-01-29T12:10:30.506Z,-2.77
2023-01-29T12:12:56.948Z,-3.16
2023-01-29T12:15:23.476Z,-3.53
2023-01-29T12:17:50.241Z,-4.07
2023-01-29T12:20:17.111Z,-3.83
2023-01-29T12:22:43.678Z,-3.60
2023-01-29T12:25:10.384Z,-3.67
2023-01-29T12:27:37.042Z,-3.79
2023-01-29T12:30:03.775Z,-4.06
2023-01-29T12:32:30.362Z,-4.32
2023-01-29T12:34:57.310Z,-4.54
2023-01-29T12:37:24.376Z,-3.62
2023-01-29T12:39:50.977Z,-4.71
2023-01-29T12:42:17.545Z,-4.20
2023-01-29T12:44:43.992Z,-3.68
2023-01-29T12:47:10.658Z,-3.82
2023-01-29T12:49:37.568Z,-3.57
2023-01-29T12:52:04.191Z,-3.55
2023-01-29T12:54:31.614Z,-3.20
2023-01-29T12:56:58.454Z,-3.59
2023-01-29T12:59:25.395Z,-2.94
2023-01-29T13:01:51.946Z,-3.54
2023-01-29T13:04:21.516Z,-3.48
2023-01-29T13:06:48.125Z,-3.63
2023-01-29T13:09:14.602Z,-2.88
2023-01-29T13:11:41.468Z,-3.23
2023-01-29T13:14:07.911Z,-3.12
2023-01-29T13:16:34.371Z,-2.73
2023-01-29T13:19:01.060Z,-2.46
2023-01-29T13:21:27.527Z,-2.86
2023-01-29T13:23:53.954Z,-2.91
2023-01-29T13:26:20.558Z,-2.77
2023-01-29T13:28:46.999Z,-2.31
2023-01-29T13:31:13.477Z,-2.80
2023-01-29T13:33:39.901Z,-3.08
2023-01-29T13:36:06.359Z,-3.02
2023-01-29T13:38:32.724Z,-2.68
2023-01-29T13:40:59.684Z,-2.38
2023-01-29T13:43:26.310Z,-1.93
2023-01-29T13:45:53.190Z,-1.84
2023-01-29T13:48:20.028Z,-2.34
2023-01-29T13:50:46.516Z,-2.63
2023-01-29T13:53:12.971Z,-2.13
2023-01-29T13:55:39.557Z,-1.79
2023-01-29T13:58:06.160Z,-1.82
2023-01-29T14:00:32.638Z,-2.33
2023-01-29T14:02:59.876Z,-2.09
2023-01-29T14:05:26.667Z,-2.41
2023-01-29T14:07:53.367Z,-2.46
2023-01-29T14:10:20.130Z,-2.61
2023-01-29T14:12:46.740Z,-2.31
2023-01-29T14:15:13.577Z,-1.94
2023-01-29T14:17:40.476Z,-1.75
2023-01-29T14:20:07.238Z,-1.74
2023-01-29T14:22:34.850Z,-2.10
2023-01-29T14:25:02.680Z,-2.14
2023-01-29T14:27:29.274Z,-2.02
2023-01-29T14:29:55.897Z,-2.55
2023-01-29T14:32:22.348Z,-1.92
2023-01-29T14:34:49.079Z,-2.18
2023-01-29T14:37:15.962Z,-2.01
2023-01-29T14:39:42.619Z,-2.63
2023-01-29T14:42:09.524Z,-2.89
2023-01-29T14:44:37.061Z,-2.88
2023-01-29T14:47:04.151Z,-2.66
2023-01-29T14:49:30.805Z,-2.77
2023-01-29T14:51:57.715Z,-1.89
2023-01-29T14:54:24.484Z,-2.48
2023-01-29T14:56:50.966Z,-2.22
2023-01-29T14:59:17.388Z,-1.85
2023-01-29T15:01:44.026Z,-2.20
2023-01-29T15:04:12.170Z,-3.22
2023-01-29T15:06:39.521Z,-2.52
2023-01-29T15:09:06.474Z,-2.18
2023-01-29T15:11:33.455Z,-2.04
2023-01-29T15:14:00.027Z,-2.03
2023-01-29T15:16:26.806Z,-2.28
2023-01-29T15:18:54.088Z,-3.42
2023-01-29T15:21:20.937Z,-2.85
2023-01-29T15:23:48.621Z,-3.23
2023-01-29T15:26:16.168Z,-2.85
2023-01-29T15:28:47.127Z,-2.99
2023-01-29T15:31:16.313Z,-3.40
2023-01-29T15:33:42.839Z,-3.38
2023-01-29T15:36:09.822Z,-2.68
2023-01-29T15:38:36.490Z,-2.03
2023-01-29T15:41:03.756Z,-3.07
2023-01-29T15:43:30.319Z,-2.70
2023-01-29T15:45:56.710Z,-3.24
2023-01-29T15:48:23.091Z,-3.30
2023-01-29T15:50:49.563Z,-3.14
2023-01-29T15:53:16.741Z,-2.83
2023-01-29T15:55:43.284Z,-3.07
2023-01-29T15:58:10.206Z,-3.03
2023-01-29T16:00:38.192Z,-3.09
2023-01-29T16:03:05.698Z,-2.70
2023-01-29T16:05:32.320Z,-3.12
2023-01-29T16:07:58.777Z,-2.92
2023-01-29T16:10:26.233Z,-3.47
2023-01-29T16:12:53.518Z,-2.83
2023-01-29T16:15:20.849Z,-3.56
2023-01-29T16:17:47.501Z,-3.08
2023-01-29T16:20:14.309Z,-2.46
2023-01-29T16:22:40.774Z,-2.80
2023-01-29T16:25:07.649Z,-2.59
2023-01-29T16:27:34.301Z,-2.47
2023-01-29T16:30:00.937Z,-2.98
2023-01-29T16:32:27.929Z,-2.79
2023-01-29T16:34:54.811Z,-2.66
2023-01-29T16:37:24.861Z,-2.27
2023-01-29T16:39:55.198Z,-2.53
2023-01-29T16:42:22.083Z,-2.25
2023-01-29T16:44:49.263Z,-2.32
2023-01-29T16:47:16.235Z,-2.56
2023-01-29T16:49:43.256Z,-2.48
2023-01-29T16:52:10.148Z,-2.40
2023-01-29T16:54:37.019Z,-2.37
2023-01-29T16:57:04.326Z,-1.89
2023-01-29T16:59:32.112Z,-2.38
2023-01-29T17:01:59.218Z,-2.45
2023-01-29T17:04:26.164Z,-2.16
2023-01-29T17:06:53.075Z,-1.98
2023-01-29T17:09:19.981Z,-1.86
2023-01-29T17:11:46.523Z,-1.72
2023-01-29T17:14:15.727Z,-2.02
2023-01-29T17:16:43.210Z,-1.99
2023-01-29T17:19:10.013Z,-2.11
2023-01-29T17:21:37.275Z,-2.55
2023-01-29T17:24:04.253Z,-2.39
2023-01-29T17:26:31.192Z,-2.47
2023-01-29T17:28:58.194Z,-2.18
2023-01-29T17:31:25.497Z,-2.25
2023-01-29T17:33:53.412Z,-2.05
2023-01-29T17:36:20.383Z,-1.96
2023-01-29T17:38:48.449Z,-2.40
2023-01-29T17:41:15.016Z,-2.38
2023-01-29T17:43:44.331Z,-2.44
2023-01-29T17:46:12.393Z,-2.48
2023-01-29T17:48:39.564Z,-2.37
2023-01-29T17:51:06.471Z,-2.32
2023-01-29T17:53:45.193Z,-2.34
2023-01-29T17:56:13.736Z,-2.34
2023-01-29T17:58:41.418Z,-2.25
2023-01-29T18:01:11.287Z,-2.32
2023-01-29T18:03:38.356Z,-2.26
2023-01-29T18:06:05.327Z,-2.24
2023-01-29T18:08:40.408Z,-2.27
2023-01-29T18:11:08.359Z,-2.44
2023-01-29T18:13:37.583Z,-2.38
2023-01-29T18:16:04.422Z,-2.34
2023-01-29T18:18:31.191Z,-2.29
2023-01-29T18:20:58.020Z,-2.27
2023-01-29T18:23:24.556Z,-2.26
2023-01-29T18:25:51.543Z,-2.31
2023-01-29T18:28:19.112Z,-2.33
2023-01-29T18:30:45.643Z,-2.39
2023-01-29T18:33:14.964Z,-2.39
2023-01-29T18:35:42.744Z,-2.37
2023-01-29T18:38:09.750Z,-2.40
2023-01-29T18:40:36.735Z,-2.45
2023-01-29T18:43:04.482Z,-2.36
2023-01-29T18:45:31.594Z,-2.40
2023-01-29T18:48:01.821Z,-2.43
2023-01-29T18:50:28.907Z,-2.30
2023-01-29T18:52:55.969Z,-2.67
2023-01-29T18:55:23.555Z,-2.44
2023-01-29T18:58:26.785Z,-2.33
2023-01-29T19:00:38.525Z,-2.76
2023-01-29T19:03:05.561Z,-2.55
2023-01-29T19:05:32.530Z,-2.36
2023-01-29T19:08:00.234Z,-2.45
2023-01-29T19:10:26.800Z,-2.57
2023-01-29T19:12:56.841Z,-2.55
2023-01-29T19:15:23.926Z,-3.01
2023-01-29T19:17:50.986Z,-2.57
2023-01-29T19:20:17.477Z,-2.42
2023-01-29T19:22:44.307Z,-2.88
2023-01-29T19:25:11.256Z,-3.05
2023-01-29T19:27:38.296Z,-2.60
2023-01-29T19:30:05.318Z,-3.00
2023-01-29T19:32:32.345Z,-2.57
2023-01-29T19:34:59.434Z,-2.82
2023-01-29T19:37:31.900Z,-2.59
2023-01-29T19:39:58.830Z,-2.50
2023-01-29T19:42:25.839Z,-2.50
2023-01-29T19:44:52.791Z,-2.70
2023-01-29T19:47:19.787Z,-3.13
2023-01-29T19:49:49.981Z,-2.83
2023-01-29T19:52:17.232Z,-2.99
2023-01-29T19:54:47.210Z,-2.71
2023-01-29T19:57:14.541Z,-2.53
2023-01-29T19:59:41.975Z,-2.80
2023-01-29T20:02:10.922Z,-2.94
2023-01-29T20:04:38.010Z,-2.93
2023-01-29T20:07:06.075Z,-2.71
2023-01-29T20:09:33.059Z,-4.37
2023-01-29T20:12:00.464Z,-3.30
2023-01-29T20:14:27.475Z,-3.11
2023-01-29T20:16:54.621Z,-3.43
2023-01-29T20:19:22.655Z,-3.01
2023-01-29T20:21:50.243Z,-3.59
2023-01-29T20:24:20.088Z,-3.42
2023-01-29T20:26:46.677Z,-3.06
2023-01-29T20:29:13.819Z,-3.58
2023-01-29T20:31:41.652Z,-3.11
2023-01-29T20:34:08.685Z,-2.74
2023-01-29T20:36:35.932Z,-2.55
2023-01-29T20:39:07.598Z,-2.56
2023-01-29T20:41:38.656Z,-2.67
2023-01-29T20:44:08.027Z,-2.93
2023-01-29T20:46:34.960Z,-2.61
2023-01-29T20:49:02.829Z,-2.49
2023-01-29T20:51:30.597Z,-2.54
2023-01-29T20:53:57.736Z,-2.55
2023-01-29T20:56:34.278Z,-2.88
2023-01-29T20:59:09.146Z,-2.78
2023-01-29T21:01:41.692Z,-2.56
2023-01-29T21:04:10.911Z,-2.25
2023-01-29T21:06:39.200Z,-2.07
2023-01-29T21:09:06.738Z,-2.17
2023-01-29T21:11:36.075Z,-2.71
2023-01-29T21:14:02.680Z,-2.51
2023-01-29T21:16:29.677Z,-2.28
2023-01-29T21:18:56.792Z,-2.32
2023-01-29T21:21:23.973Z,-2.66
2023-01-29T21:23:50.675Z,-2.48
2023-01-29T21:26:17.332Z,-2.37
2023-01-29T21:28:45.051Z,-2.50
2023-01-29T21:31:13.080Z,-2.61
2023-01-29T21:33:39.637Z,-3.12
2023-01-29T21:36:06.526Z,-3.05
2023-01-29T21:38:34.244Z,-2.83
2023-01-29T21:41:00.731Z,-2.46
2023-01-29T21:43:29.578Z,-2.77
2023-01-29T21:45:56.465Z,-3.06
2023-01-29T21:48:23.602Z,-2.79
2023-01-29T21:50:50.676Z,-2.94
2023-01-29T21:53:18.418Z,-2.97
2023-01-29T21:55:44.925Z,-2.80
2023-01-29T21:58:14.068Z,-2.68
2023-01-29T22:00:40.992Z,-2.83
2023-01-29T22:03:07.751Z,-3.32
2023-01-29T22:05:34.617Z,-2.92
2023-01-29T22:08:01.273Z,-2.70
2023-01-29T22:10:28.785Z,-2.70
2023-01-29T22:12:55.861Z,-2.90
2023-01-29T22:15:23.862Z,-3.03
2023-01-29T22:17:50.529Z,-2.80
2023-01-29T22:20:17.190Z,-2.91
2023-01-29T22:22:44.299Z,-2.81
2023-01-29T22:25:10.759Z,-2.99
2023-01-29T22:27:38.390Z,-3.25
2023-01-29T22:30:04.905Z,-3.38
2023-01-29T22:32:31.612Z,-3.22
2023-01-29T22:34:58.085Z,-3.21
2023-01-29T22:37:25.577Z,-2.95
2023-01-29T22:39:52.249Z,-3.58
2023-01-29T22:42:19.360Z,-3.12
2023-01-29T22:44:46.119Z,-3.05
2023-01-29T22:47:12.547Z,-3.45
2023-01-29T22:49:38.962Z,-3.28
2023-01-29T22:52:05.416Z,-3.39
2023-01-29T22:54:31.902Z,-3.15
2023-01-29T22:56:58.370Z,-3.54
2023-01-29T22:59:24.994Z,-3.65
2023-01-29T23:01:55.532Z,-4.16
2023-01-29T23:04:22.017Z,-3.84
2023-01-29T23:06:48.495Z,-3.92
2023-01-29T23:09:15.004Z,-4.02
2023-01-29T23:11:41.663Z,-4.06
2023-01-29T23:14:08.191Z,-3.59
2023-01-29T23:16:35.755Z,-3.63
2023-01-29T23:19:02.212Z,-3.48
2023-01-29T23:21:28.703Z,-3.27
2023-01-29T23:23:55.176Z,-3.97
2023-01-29T23:26:21.853Z,-4.05
2023-01-29T23:28:48.346Z,-4.06
2023-01-29T23:31:14.753Z,-3.77
2023-01-29T23:33:41.267Z,-3.81
2023-01-29T23:36:07.943Z,-3.91
2023-01-29T23:38:36.674Z,-3.76
2023-01-29T23:41:03.157Z,-3.62
2023-01-29T23:43:29.557Z,-3.71
2023-01-29T23:45:56.195Z,-3.62
2023-01-29T23:48:22.984Z,-3.73
2023-01-29T23:50:49.589Z,-3.54
2023-01-29T23:53:16.021Z,-3.86
2023-01-29T23:55:42.861Z,-3.72
2023-01-29T23:58:09.402Z,-3.90
